sensor_id;sensor_type;location;lat;lon;timestamp;pressure;altitude;pressure_sealevel;temperature;humidity
58245;BME280;44550;43.864;25.986;2023-04-06T00:01:59;100863.69;;;3.27;100.00
58245;BME280;44550;43.864;25.986;2023-04-06T00:06:12;100861.78;;;3.21;100.00
58245;BME280;44550;43.864;25.986;2023-04-06T00:10:50;100854.91;;;3.22;100.00
58245;BME280;44550;43.864;25.986;2023-04-06T00:15:12;100851.84;;;3.32;100.00
58245;BME280;44550;43.864;25.986;2023-04-06T00:19:23;100844.09;;;3.32;100.00
58245;BME280;44550;43.864;25.986;2023-04-06T00:23:31;100832.69;;;3.27;100.00
58245;BME280;44550;43.864;25.986;2023-04-06T00:27:42;100838.72;;;3.27;100.00
58245;BME280;44550;43.864;25.986;2023-04-06T00:31:51;100822.22;;;3.24;100.00
58245;BME280;44550;43.864;25.986;2023-04-06T00:35:57;100823.91;;;3.22;100.00
58245;BME280;44550;43.864;25.986;2023-04-06T00:40:02;100823.78;;;3.19;100.00
58245;BME280;44550;43.864;25.986;2023-04-06T00:44:07;100810.91;;;3.20;100.00
58245;BME280;44550;43.864;25.986;2023-04-06T00:48:16;100818.13;;;3.06;100.00
58245;BME280;44550;43.864;25.986;2023-04-06T00:52:20;100816.25;;;3.02;100.00
58245;BME280;44550;43.864;25.986;2023-04-06T00:56:27;100809.34;;;3.01;100.00
58245;BME280;44550;43.864;25.986;2023-04-06T01:00:28;100814.91;;;3.12;100.00
58245;BME280;44550;43.864;25.986;2023-04-06T01:04:33;100816.63;;;3.12;100.00
58245;BME280;44550;43.864;25.986;2023-04-06T01:08:38;100807.44;;;2.97;100.00
58245;BME280;44550;43.864;25.986;2023-04-06T01:12:44;100806.06;;;3.05;100.00
58245;BME280;44550;43.864;25.986;2023-04-06T01:16:47;100800.94;;;3.07;100.00
58245;BME280;44550;43.864;25.986;2023-04-06T01:20:49;100794.53;;;3.20;100.00
58245;BME280;44550;43.864;25.986;2023-04-06T01:24:56;100803.47;;;3.28;100.00
58245;BME280;44550;43.864;25.986;2023-04-06T01:29:01;100793.81;;;3.24;100.00
58245;BME280;44550;43.864;25.986;2023-04-06T01:33:03;100795.78;;;3.31;100.00
58245;BME280;44550;43.864;25.986;2023-04-06T01:37:10;100772.44;;;3.28;100.00
58245;BME280;44550;43.864;25.986;2023-04-06T01:41:13;100770.97;;;3.35;100.00
58245;BME280;44550;43.864;25.986;2023-04-06T01:45:18;100771.72;;;3.32;100.00
58245;BME280;44550;43.864;25.986;2023-04-06T01:49:20;100767.97;;;3.24;100.00
58245;BME280;44550;43.864;25.986;2023-04-06T01:53:21;100766.84;;;3.40;100.00
58245;BME280;44550;43.864;25.986;2023-04-06T01:57:30;100739.44;;;3.21;100.00
58245;BME280;44550;43.864;25.986;2023-04-06T02:01:31;100762.53;;;3.40;100.00
58245;BME280;44550;43.864;25.986;2023-04-06T02:05:35;100746.50;;;3.49;100.00
58245;BME280;44550;43.864;25.986;2023-04-06T02:09:43;100751.19;;;3.61;100.00
58245;BME280;44550;43.864;25.986;2023-04-06T02:13:54;100747.59;;;3.56;100.00
58245;BME280;44550;43.864;25.986;2023-04-06T02:17:58;100747.94;;;3.66;100.00
58245;BME280;44550;43.864;25.986;2023-04-06T02:21:59;100743.56;;;3.40;100.00
58245;BME280;44550;43.864;25.986;2023-04-06T02:26:05;100742.97;;;3.23;100.00
58245;BME280;44550;43.864;25.986;2023-04-06T02:30:09;100740.09;;;3.39;100.00
58245;BME280;44550;43.864;25.986;2023-04-06T02:34:13;100730.72;;;3.41;100.00
58245;BME280;44550;43.864;25.986;2023-04-06T02:38:15;100725.38;;;3.37;100.00
58245;BME280;44550;43.864;25.986;2023-04-06T02:42:16;100730.59;;;3.38;100.00
58245;BME280;44550;43.864;25.986;2023-04-06T02:46:21;100721.38;;;3.45;100.00
58245;BME280;44550;43.864;25.986;2023-04-06T02:50:32;100726.75;;;3.51;100.00
58245;BME280;44550;43.864;25.986;2023-04-06T02:54:33;100722.19;;;3.69;100.00
58245;BME280;44550;43.864;25.986;2023-04-06T02:58:40;100726.94;;;3.81;100.00
58245;BME280;44550;43.864;25.986;2023-04-06T03:02:46;100726.00;;;3.81;100.00
58245;BME280;44550;43.864;25.986;2023-04-06T03:06:48;100711.50;;;3.84;100.00
58245;BME280;44550;43.864;25.986;2023-04-06T03:10:50;100728.53;;;3.78;100.00
58245;BME280;44550;43.864;25.986;2023-04-06T03:14:54;100721.22;;;3.66;100.00
58245;BME280;44550;43.864;25.986;2023-04-06T03:19:07;100726.25;;;3.61;100.00
58245;BME280;44550;43.864;25.986;2023-04-06T03:23:08;100721.66;;;3.78;100.00
58245;BME280;44550;43.864;25.986;2023-04-06T03:27:11;100717.66;;;3.88;100.00
58245;BME280;44550;43.864;25.986;2023-04-06T03:31:13;100721.69;;;3.80;100.00
58245;BME280;44550;43.864;25.986;2023-04-06T03:35:21;100717.97;;;3.71;100.00
58245;BME280;44550;43.864;25.986;2023-04-06T03:39:27;100722.31;;;3.72;100.00
58245;BME280;44550;43.864;25.986;2023-04-06T03:43:29;100726.53;;;3.70;100.00
58245;BME280;44550;43.864;25.986;2023-04-06T03:47:32;100720.50;;;3.70;100.00
58245;BME280;44550;43.864;25.986;2023-04-06T03:51:36;100721.19;;;3.64;100.00
58245;BME280;44550;43.864;25.986;2023-04-06T03:55:40;100715.31;;;3.70;100.00
58245;BME280;44550;43.864;25.986;2023-04-06T03:59:41;100715.44;;;3.73;100.00
58245;BME280;44550;43.864;25.986;2023-04-06T04:03:48;100714.50;;;3.71;100.00
58245;BME280;44550;43.864;25.986;2023-04-06T04:07:59;100716.88;;;3.65;100.00
58245;BME280;44550;43.864;25.986;2023-04-06T04:12:08;100719.81;;;3.75;100.00
58245;BME280;44550;43.864;25.986;2023-04-06T04:16:24;100724.28;;;3.80;100.00
58245;BME280;44550;43.864;25.986;2023-04-06T04:20:28;100718.88;;;3.73;100.00
58245;BME280;44550;43.864;25.986;2023-04-06T04:24:35;100720.06;;;3.83;100.00
58245;BME280;44550;43.864;25.986;2023-04-06T04:28:39;100718.47;;;3.87;100.00
58245;BME280;44550;43.864;25.986;2023-04-06T04:32:40;100723.53;;;3.84;100.00
58245;BME280;44550;43.864;25.986;2023-04-06T04:36:48;100722.25;;;3.96;100.00
58245;BME280;44550;43.864;25.986;2023-04-06T04:40:55;100723.09;;;3.95;100.00
58245;BME280;44550;43.864;25.986;2023-04-06T04:44:57;100719.19;;;3.83;100.00
58245;BME280;44550;43.864;25.986;2023-04-06T04:49:00;100726.84;;;3.80;100.00
58245;BME280;44550;43.864;25.986;2023-04-06T04:53:09;100723.72;;;3.88;100.00
58245;BME280;44550;43.864;25.986;2023-04-06T04:57:29;100735.91;;;3.92;100.00
58245;BME280;44550;43.864;25.986;2023-04-06T05:01:35;100734.53;;;4.04;100.00
58245;BME280;44550;43.864;25.986;2023-04-06T05:05:51;100726.84;;;4.05;100.00
58245;BME280;44550;43.864;25.986;2023-04-06T05:09:57;100730.75;;;4.19;100.00
58245;BME280;44550;43.864;25.986;2023-04-06T05:14:04;100732.00;;;4.31;100.00
58245;BME280;44550;43.864;25.986;2023-04-06T05:18:13;100735.59;;;4.36;100.00
58245;BME280;44550;43.864;25.986;2023-04-06T05:22:14;100734.44;;;4.26;100.00
58245;BME280;44550;43.864;25.986;2023-04-06T05:26:25;100728.13;;;4.18;100.00
58245;BME280;44550;43.864;25.986;2023-04-06T05:30:31;100724.72;;;4.19;100.00
58245;BME280;44550;43.864;25.986;2023-04-06T05:34:39;100712.75;;;4.22;100.00
58245;BME280;44550;43.864;25.986;2023-04-06T05:38:43;100720.63;;;4.27;100.00
58245;BME280;44550;43.864;25.986;2023-04-06T05:42:45;100723.22;;;4.27;100.00
58245;BME280;44550;43.864;25.986;2023-04-06T05:46:51;100721.09;;;4.41;100.00
58245;BME280;44550;43.864;25.986;2023-04-06T05:50:54;100712.81;;;4.53;100.00
58245;BME280;44550;43.864;25.986;2023-04-06T05:54:57;100698.31;;;4.58;100.00
58245;BME280;44550;43.864;25.986;2023-04-06T05:58:59;100715.72;;;4.63;100.00
58245;BME280;44550;43.864;25.986;2023-04-06T06:03:03;100704.91;;;4.77;100.00
58245;BME280;44550;43.864;25.986;2023-04-06T06:07:07;100703.78;;;4.67;100.00
58245;BME280;44550;43.864;25.986;2023-04-06T06:11:14;100700.09;;;4.89;100.00
58245;BME280;44550;43.864;25.986;2023-04-06T06:15:20;100697.97;;;5.06;100.00
58245;BME280;44550;43.864;25.986;2023-04-06T06:19:31;100694.22;;;4.94;100.00
58245;BME280;44550;43.864;25.986;2023-04-06T06:23:34;100694.19;;;4.64;100.00
58245;BME280;44550;43.864;25.986;2023-04-06T06:27:58;100703.78;;;4.67;100.00
58245;BME280;44550;43.864;25.986;2023-04-06T06:32:14;100697.34;;;4.54;100.00
58245;BME280;44550;43.864;25.986;2023-04-06T06:36:20;100694.09;;;4.61;100.00
58245;BME280;44550;43.864;25.986;2023-04-06T06:40:24;100700.88;;;4.86;100.00
58245;BME280;44550;43.864;25.986;2023-04-06T06:44:25;100697.66;;;4.93;100.00
58245;BME280;44550;43.864;25.986;2023-04-06T06:48:30;100704.97;;;5.08;100.00
58245;BME280;44550;43.864;25.986;2023-04-06T06:52:34;100684.44;;;5.16;100.00
58245;BME280;44550;43.864;25.986;2023-04-06T06:56:38;100706.19;;;5.21;100.00
58245;BME280;44550;43.864;25.986;2023-04-06T07:00:41;100710.19;;;5.10;100.00
58245;BME280;44550;43.864;25.986;2023-04-06T07:04:47;100691.50;;;5.20;100.00
58245;BME280;44550;43.864;25.986;2023-04-06T07:08:50;100694.19;;;5.23;100.00
58245;BME280;44550;43.864;25.986;2023-04-06T07:12:54;100701.44;;;5.36;100.00
58245;BME280;44550;43.864;25.986;2023-04-06T07:16:55;100703.03;;;5.64;99.68
58245;BME280;44550;43.864;25.986;2023-04-06T07:21:00;100707.81;;;5.82;99.27
58245;BME280;44550;43.864;25.986;2023-04-06T07:25:03;100693.59;;;6.00;96.96
58245;BME280;44550;43.864;25.986;2023-04-06T07:29:15;100696.53;;;6.14;96.98
58245;BME280;44550;43.864;25.986;2023-04-06T07:33:25;100700.69;;;6.07;96.61
58245;BME280;44550;43.864;25.986;2023-04-06T07:37:28;100697.31;;;6.09;95.71
58245;BME280;44550;43.864;25.986;2023-04-06T07:41:31;100694.91;;;6.19;95.40
58245;BME280;44550;43.864;25.986;2023-04-06T07:45:32;100698.34;;;6.16;95.80
58245;BME280;44550;43.864;25.986;2023-04-06T07:49:37;100694.09;;;6.21;95.10
58245;BME280;44550;43.864;25.986;2023-04-06T07:53:39;100703.09;;;6.35;94.71
58245;BME280;44550;43.864;25.986;2023-04-06T07:57:47;100684.88;;;6.32;93.47
58245;BME280;44550;43.864;25.986;2023-04-06T08:01:51;100689.97;;;6.69;93.15
58245;BME280;44550;43.864;25.986;2023-04-06T08:05:53;100694.84;;;6.93;91.57
58245;BME280;44550;43.864;25.986;2023-04-06T08:09:53;100702.13;;;7.09;91.49
58245;BME280;44550;43.864;25.986;2023-04-06T08:14:04;100694.97;;;7.43;89.31
58245;BME280;44550;43.864;25.986;2023-04-06T08:18:05;100692.31;;;7.41;88.53
58245;BME280;44550;43.864;25.986;2023-04-06T08:22:06;100689.53;;;7.30;88.30
58245;BME280;44550;43.864;25.986;2023-04-06T08:26:07;100696.13;;;7.13;88.64
58245;BME280;44550;43.864;25.986;2023-04-06T08:30:10;100690.13;;;7.17;89.02
58245;BME280;44550;43.864;25.986;2023-04-06T08:34:12;100695.06;;;7.03;89.41
58245;BME280;44550;43.864;25.986;2023-04-06T08:38:14;100688.66;;;7.30;89.45
58245;BME280;44550;43.864;25.986;2023-04-06T08:42:18;100690.66;;;7.45;87.13
58245;BME280;44550;43.864;25.986;2023-04-06T08:46:22;100690.50;;;7.37;87.19
58245;BME280;44550;43.864;25.986;2023-04-06T08:50:27;100690.50;;;7.37;87.62
58245;BME280;44550;43.864;25.986;2023-04-06T08:54:28;100689.25;;;7.17;88.81
58245;BME280;44550;43.864;25.986;2023-04-06T08:58:34;100698.56;;;7.51;88.73
58245;BME280;44550;43.864;25.986;2023-04-06T09:02:39;100688.41;;;7.63;86.13
58245;BME280;44550;43.864;25.986;2023-04-06T09:06:43;100691.28;;;7.80;84.82
58245;BME280;44550;43.864;25.986;2023-04-06T09:10:45;100691.53;;;7.94;84.14
58245;BME280;44550;43.864;25.986;2023-04-06T09:14:45;100689.13;;;8.05;82.31
58245;BME280;44550;43.864;25.986;2023-04-06T09:18:49;100695.19;;;8.05;83.44
58245;BME280;44550;43.864;25.986;2023-04-06T09:22:49;100687.28;;;8.00;83.16
58245;BME280;44550;43.864;25.986;2023-04-06T09:26:50;100682.03;;;7.97;83.35
58245;BME280;44550;43.864;25.986;2023-04-06T09:30:54;100700.19;;;7.91;82.67
58245;BME280;44550;43.864;25.986;2023-04-06T09:35:07;100689.00;;;7.98;82.42
58245;BME280;44550;43.864;25.986;2023-04-06T09:39:08;100684.59;;;7.94;83.43
58245;BME280;44550;43.864;25.986;2023-04-06T09:43:10;100685.44;;;7.92;82.19
58245;BME280;44550;43.864;25.986;2023-04-06T09:47:13;100685.16;;;7.75;82.39
58245;BME280;44550;43.864;25.986;2023-04-06T09:51:17;100699.03;;;7.75;82.76
58245;BME280;44550;43.864;25.986;2023-04-06T09:55:20;100691.97;;;7.68;83.10
58245;BME280;44550;43.864;25.986;2023-04-06T09:59:25;100703.03;;;7.58;83.02
58245;BME280;44550;43.864;25.986;2023-04-06T10:03:30;100682.44;;;7.69;82.12
58245;BME280;44550;43.864;25.986;2023-04-06T10:07:49;100691.00;;;7.65;84.10
58245;BME280;44550;43.864;25.986;2023-04-06T10:11:57;100682.28;;;8.14;83.77
58245;BME280;44550;43.864;25.986;2023-04-06T10:16:03;100677.75;;;8.56;81.64
58245;BME280;44550;43.864;25.986;2023-04-06T10:20:14;100676.16;;;8.67;78.02
58245;BME280;44550;43.864;25.986;2023-04-06T10:24:45;100676.00;;;8.55;78.61
58245;BME280;44550;43.864;25.986;2023-04-06T10:29:02;100664.97;;;8.74;78.45
58245;BME280;44550;43.864;25.986;2023-04-06T10:33:15;100664.97;;;8.76;78.38
58245;BME280;44550;43.864;25.986;2023-04-06T10:37:23;100657.38;;;8.92;77.21
58245;BME280;44550;43.864;25.986;2023-04-06T10:41:34;100663.00;;;9.29;76.00
58245;BME280;44550;43.864;25.986;2023-04-06T10:50:18;100657.03;;;9.38;73.79
58245;BME280;44550;43.864;25.986;2023-04-06T10:54:18;100656.91;;;9.27;73.88
58245;BME280;44550;43.864;25.986;2023-04-06T10:58:24;100658.94;;;9.56;71.55
58245;BME280;44550;43.864;25.986;2023-04-06T11:02:36;100646.69;;;9.47;71.04
58245;BME280;44550;43.864;25.986;2023-04-06T11:06:39;100647.28;;;9.23;72.98
58245;BME280;44550;43.864;25.986;2023-04-06T11:10:40;100643.00;;;9.28;71.03
58245;BME280;44550;43.864;25.986;2023-04-06T11:14:54;100642.03;;;9.20;72.86
58245;BME280;44550;43.864;25.986;2023-04-06T11:19:13;100647.41;;;9.34;72.20
58245;BME280;44550;43.864;25.986;2023-04-06T11:23:31;100635.84;;;9.07;71.49
58245;BME280;44550;43.864;25.986;2023-04-06T11:27:31;100636.88;;;9.26;71.58
58245;BME280;44550;43.864;25.986;2023-04-06T11:31:40;100636.16;;;9.39;72.02
58245;BME280;44550;43.864;25.986;2023-04-06T11:35:50;100626.72;;;9.51;70.28
58245;BME280;44550;43.864;25.986;2023-04-06T11:40:07;100628.44;;;9.53;70.93
58245;BME280;44550;43.864;25.986;2023-04-06T11:44:28;100625.81;;;9.49;70.04
58245;BME280;44550;43.864;25.986;2023-04-06T11:48:32;100625.94;;;9.65;70.35
58245;BME280;44550;43.864;25.986;2023-04-06T11:53:00;100619.19;;;9.89;69.55
58245;BME280;44550;43.864;25.986;2023-04-06T11:57:19;100615.88;;;10.10;67.79
58245;BME280;44550;43.864;25.986;2023-04-06T12:01:23;100620.09;;;9.94;67.04
58245;BME280;44550;43.864;25.986;2023-04-06T12:05:32;100605.41;;;10.07;66.41
58245;BME280;44550;43.864;25.986;2023-04-06T12:09:48;100606.25;;;10.09;65.98
58245;BME280;44550;43.864;25.986;2023-04-06T12:14:07;100619.47;;;10.26;65.93
58245;BME280;44550;43.864;25.986;2023-04-06T12:18:10;100613.53;;;10.50;66.48
58245;BME280;44550;43.864;25.986;2023-04-06T12:22:17;100609.13;;;10.49;62.83
58245;BME280;44550;43.864;25.986;2023-04-06T12:26:18;100593.66;;;10.99;62.74
58245;BME280;44550;43.864;25.986;2023-04-06T12:30:19;100603.19;;;10.84;63.50
58245;BME280;44550;43.864;25.986;2023-04-06T12:34:21;100595.34;;;10.84;62.57
58245;BME280;44550;43.864;25.986;2023-04-06T12:38:31;100595.25;;;10.53;62.44
58245;BME280;44550;43.864;25.986;2023-04-06T12:42:41;100594.31;;;10.49;63.89
58245;BME280;44550;43.864;25.986;2023-04-06T12:46:55;100582.22;;;10.67;63.49
58245;BME280;44550;43.864;25.986;2023-04-06T12:50:57;100583.09;;;10.72;62.99
58245;BME280;44550;43.864;25.986;2023-04-06T12:55:10;100581.47;;;11.06;62.96
58245;BME280;44550;43.864;25.986;2023-04-06T12:59:11;100583.19;;;11.05;62.14
58245;BME280;44550;43.864;25.986;2023-04-06T13:03:18;100579.75;;;11.29;60.73
58245;BME280;44550;43.864;25.986;2023-04-06T13:07:32;100569.22;;;10.97;61.63
58245;BME280;44550;43.864;25.986;2023-04-06T13:11:39;100575.41;;;11.36;61.15
58245;BME280;44550;43.864;25.986;2023-04-06T13:15:58;100564.94;;;11.58;59.10
58245;BME280;44550;43.864;25.986;2023-04-06T13:20:06;100572.81;;;11.59;58.27
58245;BME280;44550;43.864;25.986;2023-04-06T13:24:09;100554.44;;;12.04;57.59
58245;BME280;44550;43.864;25.986;2023-04-06T13:28:17;100557.06;;;12.07;56.31
58245;BME280;44550;43.864;25.986;2023-04-06T13:32:18;100549.19;;;12.05;55.26
58245;BME280;44550;43.864;25.986;2023-04-06T13:36:19;100552.69;;;11.92;55.67
58245;BME280;44550;43.864;25.986;2023-04-06T13:40:21;100545.75;;;11.89;54.76
58245;BME280;44550;43.864;25.986;2023-04-06T13:44:24;100539.56;;;12.13;53.83
58245;BME280;44550;43.864;25.986;2023-04-06T13:48:27;100537.81;;;12.17;54.46
58245;BME280;44550;43.864;25.986;2023-04-06T13:52:36;100534.28;;;12.24;52.59
58245;BME280;44550;43.864;25.986;2023-04-06T13:56:42;100539.50;;;12.33;52.77
58245;BME280;44550;43.864;25.986;2023-04-06T14:00:52;100533.34;;;12.45;50.66
58245;BME280;44550;43.864;25.986;2023-04-06T14:04:55;100530.59;;;12.73;50.28
58245;BME280;44550;43.864;25.986;2023-04-06T14:09:05;100534.13;;;12.61;48.29
58245;BME280;44550;43.864;25.986;2023-04-06T14:13:14;100533.41;;;12.30;47.95
58245;BME280;44550;43.864;25.986;2023-04-06T14:17:23;100533.47;;;12.07;49.46
58245;BME280;44550;43.864;25.986;2023-04-06T14:21:27;100532.59;;;11.83;50.50
58245;BME280;44550;43.864;25.986;2023-04-06T14:25:28;100541.38;;;11.87;50.63
58245;BME280;44550;43.864;25.986;2023-04-06T14:29:42;100533.44;;;12.08;51.53
58245;BME280;44550;43.864;25.986;2023-04-06T14:33:45;100533.44;;;12.08;50.03
58245;BME280;44550;43.864;25.986;2023-04-06T14:37:52;100521.28;;;11.87;50.51
58245;BME280;44550;43.864;25.986;2023-04-06T14:42:21;100523.03;;;11.67;49.72
58245;BME280;44550;43.864;25.986;2023-04-06T14:46:44;100529.16;;;11.53;50.37
58245;BME280;44550;43.864;25.986;2023-04-06T14:51:22;100526.53;;;11.69;49.82
58245;BME280;44550;43.864;25.986;2023-04-06T14:55:25;100527.41;;;11.63;50.53
58245;BME280;44550;43.864;25.986;2023-04-06T14:59:31;100535.25;;;11.45;50.55
58245;BME280;44550;43.864;25.986;2023-04-06T15:03:37;100535.25;;;11.43;50.15
58245;BME280;44550;43.864;25.986;2023-04-06T15:07:47;100523.91;;;11.58;50.44
58245;BME280;44550;43.864;25.986;2023-04-06T15:11:55;100537.00;;;11.50;49.54
58245;BME280;44550;43.864;25.986;2023-04-06T15:16:01;100538.75;;;11.51;49.22
58245;BME280;44550;43.864;25.986;2023-04-06T15:20:07;100544.00;;;11.42;49.51
58245;BME280;44550;43.864;25.986;2023-04-06T15:24:29;100554.47;;;11.47;49.75
58245;BME280;44550;43.864;25.986;2023-04-06T15:28:38;100537.88;;;11.57;49.37
58245;BME280;44550;43.864;25.986;2023-04-06T15:32:41;100544.00;;;11.39;49.89
58245;BME280;44550;43.864;25.986;2023-04-06T15:37:10;100552.72;;;11.46;50.17
58245;BME280;44550;43.864;25.986;2023-04-06T15:41:29;100554.47;;;11.30;50.39
58245;BME280;44550;43.864;25.986;2023-04-06T15:45:35;100557.94;;;11.41;51.14
58245;BME280;44550;43.864;25.986;2023-04-06T15:49:38;100553.56;;;11.25;51.30
58245;BME280;44550;43.864;25.986;2023-04-06T15:53:41;100556.16;;;11.08;51.57
58245;BME280;44550;43.864;25.986;2023-04-06T15:58:03;100565.78;;;11.14;51.27
58245;BME280;44550;43.864;25.986;2023-04-06T16:02:14;100571.00;;;11.18;51.29
58245;BME280;44550;43.864;25.986;2023-04-06T16:06:26;100575.34;;;11.01;51.35
58245;BME280;44550;43.864;25.986;2023-04-06T16:10:51;100584.94;;;11.08;51.88
58245;BME280;44550;43.864;25.986;2023-04-06T16:15:06;100580.53;;;10.92;52.04
58245;BME280;44550;43.864;25.986;2023-04-06T16:19:44;100578.81;;;10.86;52.70
58245;BME280;44550;43.864;25.986;2023-04-06T16:23:59;100577.91;;;10.89;52.88
58245;BME280;44550;43.864;25.986;2023-04-06T16:28:07;100584.91;;;10.87;53.13
58245;BME280;44550;43.864;25.986;2023-04-06T16:41:59;100589.13;;;10.58;55.30
58245;BME280;44550;43.864;25.986;2023-04-06T16:46:19;100596.94;;;10.52;56.10
58245;BME280;44550;43.864;25.986;2023-04-06T16:50:26;100607.41;;;10.51;55.54
58245;BME280;44550;43.864;25.986;2023-04-06T16:54:35;100609.91;;;10.31;55.44
58245;BME280;44550;43.864;25.986;2023-04-06T16:58:41;100623.84;;;10.27;55.84
58245;BME280;44550;43.864;25.986;2023-04-06T17:02:47;100621.16;;;10.22;54.70
58245;BME280;44550;43.864;25.986;2023-04-06T17:07:03;100635.06;;;10.20;54.84
58245;BME280;44550;43.864;25.986;2023-04-06T17:11:10;100635.84;;;10.06;54.84
58245;BME280;44550;43.864;25.986;2023-04-06T17:20:30;100643.69;;;10.06;54.43
58245;BME280;44550;43.864;25.986;2023-04-06T17:24:44;100650.50;;;9.86;54.50
58245;BME280;44550;43.864;25.986;2023-04-06T17:28:55;100662.63;;;9.78;54.87
58245;BME280;44550;43.864;25.986;2023-04-06T17:33:08;100665.06;;;9.59;55.69
58245;BME280;44550;43.864;25.986;2023-04-06T17:37:22;100671.91;;;9.48;56.33
58245;BME280;44550;43.864;25.986;2023-04-06T17:41:45;100671.75;;;9.31;56.92
58245;BME280;44550;43.864;25.986;2023-04-06T17:46:05;100667.41;;;9.33;56.22
58245;BME280;44550;43.864;25.986;2023-04-06T17:50:15;100669.81;;;9.16;57.39
58245;BME280;44550;43.864;25.986;2023-04-06T17:54:22;100696.72;;;9.12;56.91
58245;BME280;44550;43.864;25.986;2023-04-06T17:58:33;100709.78;;;9.11;55.37
58245;BME280;44550;43.864;25.986;2023-04-06T18:02:42;100707.19;;;9.14;55.20
58245;BME280;44550;43.864;25.986;2023-04-06T18:06:58;100715.84;;;9.11;54.88
58245;BME280;44550;43.864;25.986;2023-04-06T18:11:05;100722.81;;;9.11;55.33
58245;BME280;44550;43.864;25.986;2023-04-06T18:15:11;100731.41;;;9.04;55.82
58245;BME280;44550;43.864;25.986;2023-04-06T18:19:30;100738.25;;;8.96;57.15
58245;BME280;44550;43.864;25.986;2023-04-06T18:23:59;100752.03;;;8.85;57.26
58245;BME280;44550;43.864;25.986;2023-04-06T18:28:55;100757.06;;;8.72;56.90
58245;BME280;44550;43.864;25.986;2023-04-06T18:33:18;100757.91;;;8.72;56.66
58245;BME280;44550;43.864;25.986;2023-04-06T18:37:27;100767.28;;;8.61;55.63
58245;BME280;44550;43.864;25.986;2023-04-06T18:46:04;100771.53;;;8.54;55.59
58245;BME280;44550;43.864;25.986;2023-04-06T18:50:10;100783.59;;;8.46;56.13
58245;BME280;44550;43.864;25.986;2023-04-06T18:54:21;100784.34;;;8.39;55.83
58245;BME280;44550;43.864;25.986;2023-04-06T18:58:29;100794.56;;;8.28;56.68
58245;BME280;44550;43.864;25.986;2023-04-06T19:02:35;100796.03;;;8.14;57.04
58245;BME280;44550;43.864;25.986;2023-04-06T19:06:39;100794.97;;;8.03;57.00
58245;BME280;44550;43.864;25.986;2023-04-06T19:11:03;100804.69;;;8.13;57.92
58245;BME280;44550;43.864;25.986;2023-04-06T19:15:30;100801.13;;;8.08;58.24
58245;BME280;44550;43.864;25.986;2023-04-06T19:19:35;100796.94;;;8.17;57.77
58245;BME280;44550;43.864;25.986;2023-04-06T19:23:42;100807.34;;;8.16;57.76
58245;BME280;44550;43.864;25.986;2023-04-06T19:27:49;100820.75;;;7.89;58.65
58245;BME280;44550;43.864;25.986;2023-04-06T19:31:57;100817.03;;;7.77;58.78
58245;BME280;44550;43.864;25.986;2023-04-06T19:36:05;100825.50;;;7.66;58.90
58245;BME280;44550;43.864;25.986;2023-04-06T19:40:18;100822.72;;;7.58;59.05
58245;BME280;44550;43.864;25.986;2023-04-06T19:44:44;100833.91;;;7.52;58.76
58245;BME280;44550;43.864;25.986;2023-04-06T19:48:55;100835.72;;;7.55;58.76
58245;BME280;44550;43.864;25.986;2023-04-06T19:57:57;100838.63;;;7.29;59.58
58245;BME280;44550;43.864;25.986;2023-04-06T20:02:13;100839.63;;;7.36;59.46
58245;BME280;44550;43.864;25.986;2023-04-06T20:06:19;100843.91;;;7.33;59.41
58245;BME280;44550;43.864;25.986;2023-04-06T20:10:27;100844.72;;;7.32;59.97
58245;BME280;44550;43.864;25.986;2023-04-06T20:14:56;100854.19;;;7.28;59.74
58245;BME280;44550;43.864;25.986;2023-04-06T20:19:18;100854.03;;;7.20;59.80
58245;BME280;44550;43.864;25.986;2023-04-06T20:23:49;100859.78;;;7.05;60.03
58245;BME280;44550;43.864;25.986;2023-04-06T20:32:46;100867.84;;;6.81;61.31
58245;BME280;44550;43.864;25.986;2023-04-06T20:36:53;100871.19;;;6.76;61.58
58245;BME280;44550;43.864;25.986;2023-04-06T20:41:08;100878.22;;;6.80;61.85
58245;BME280;44550;43.864;25.986;2023-04-06T20:45:28;100877.53;;;6.87;61.40
58245;BME280;44550;43.864;25.986;2023-04-06T20:54:01;100885.88;;;6.75;60.60
58245;BME280;44550;43.864;25.986;2023-04-06T20:58:20;100890.97;;;7.05;59.44
58245;BME280;44550;43.864;25.986;2023-04-06T21:02:39;100890.22;;;7.11;58.85
58245;BME280;44550;43.864;25.986;2023-04-06T21:06:52;100894.66;;;7.15;58.39
58245;BME280;44550;43.864;25.986;2023-04-06T21:11:29;100903.69;;;6.95;57.69
58245;BME280;44550;43.864;25.986;2023-04-06T21:15:37;100899.00;;;6.80;58.69
58245;BME280;44550;43.864;25.986;2023-04-06T21:19:49;100904.31;;;6.85;58.87
58245;BME280;44550;43.864;25.986;2023-04-06T21:24:15;100907.59;;;6.77;58.34
58245;BME280;44550;43.864;25.986;2023-04-06T21:38:44;100907.88;;;6.88;56.31
58245;BME280;44550;43.864;25.986;2023-04-06T21:48:25;100909.00;;;6.63;56.16
58245;BME280;44550;43.864;25.986;2023-04-06T21:53:12;100900.69;;;6.78;55.44
58245;BME280;44550;43.864;25.986;2023-04-06T21:57:43;100908.78;;;6.55;54.63
58245;BME280;44550;43.864;25.986;2023-04-06T22:02:14;100911.44;;;6.58;55.57
58245;BME280;44550;43.864;25.986;2023-04-06T22:06:33;100914.13;;;6.62;55.38
58245;BME280;44550;43.864;25.986;2023-04-06T22:11:17;100901.47;;;6.74;55.49
58245;BME280;44550;43.864;25.986;2023-04-06T22:15:35;100893.91;;;6.83;55.48
58245;BME280;44550;43.864;25.986;2023-04-06T22:19:54;100899.88;;;6.79;55.72
58245;BME280;44550;43.864;25.986;2023-04-06T22:24:18;100902.81;;;6.94;54.94
58245;BME280;44550;43.864;25.986;2023-04-06T22:28:25;100907.91;;;6.90;54.68